Time;durP1;ratioP1;P1;durP2;ratioP2;P2;SDS_P1;SDS_P2;PMS_P1;PMS_P2;Temp;Humidity;BMP_temperature;BMP_pressure;BME280_temperature;BME280_humidity;BME280_pressure;Samples;Min_cycle;Max_cycle;Signal;HPM_P1;HPM_P2
2021/03/13 00:01:06;;;;;;;19.37;10.70;;;;;;;2.82;64.65;99190.12;147871;1143;104617;-72
2021/03/13 00:04:09;;;;;;;20.50;10.50;;;;;;;2.84;64.09;99201.36;147778;1144;104543;-70
2021/03/13 00:07:12;;;;;;;17.82;9.70;;;;;;;2.82;65.03;99190.12;147858;1144;104544;-75
2021/03/13 00:10:16;;;;;;;22.27;11.48;;;;;;;2.80;64.77;99189.42;147848;1144;104524;-72
2021/03/13 00:13:19;;;;;;;21.15;10.88;;;;;;;2.76;65.01;99183.57;147899;1144;104547;-72
2021/03/13 00:16:22;;;;;;;19.87;10.70;;;;;;;2.73;65.14;99179.41;147834;1144;104656;-74
2021/03/13 00:19:25;;;;;;;21.77;11.50;;;;;;;2.69;65.13;99177.97;147794;1143;104463;-74
2021/03/13 00:22:28;;;;;;;21.07;10.65;;;;;;;2.65;65.81;99170.47;147785;1144;104453;-72
2021/03/13 00:25:32;;;;;;;19.52;10.03;;;;;;;2.61;65.04;99169.89;147801;1144;104511;-73
2021/03/13 00:28:36;;;;;;;18.30;9.97;;;;;;;2.60;65.38;99177.91;147872;1144;104500;-68
2021/03/13 00:31:39;;;;;;;18.30;9.83;;;;;;;2.57;64.96;99168.48;147714;1144;104579;-71
2021/03/13 00:34:42;;;;;;;19.60;9.53;;;;;;;2.55;65.88;99175.67;147599;1144;104943;-72
2021/03/13 00:37:46;;;;;;;16.85;8.78;;;;;;;2.53;65.06;99165.27;147693;1145;104879;-71
2021/03/13 00:40:51;;;;;;;20.08;9.88;;;;;;;2.54;64.54;99163.45;147739;1144;104471;-73
2021/03/13 00:43:54;;;;;;;22.07;10.28;;;;;;;2.49;65.50;99155.13;147750;1144;104930;-74
2021/03/13 00:46:57;;;;;;;18.92;10.23;;;;;;;2.47;65.97;99162.33;147728;1144;104590;-71
2021/03/13 00:50:00;;;;;;;21.68;9.58;;;;;;;2.44;65.16;99138.88;147771;1143;104578;-69
2021/03/13 00:53:05;;;;;;;21.95;10.45;;;;;;;2.44;65.16;99146.77;147699;1144;104467;-72
2021/03/13 00:56:08;;;;;;;22.35;10.38;;;;;;;2.41;66.12;99149.67;147709;1144;104461;-70
2021/03/13 00:59:12;;;;;;;22.50;10.98;;;;;;;2.40;65.29;99145.36;147763;1143;104531;-73
2021/03/13 01:02:15;;;;;;;23.02;10.95;;;;;;;2.39;64.99;99141.05;147756;1144;104520;-71
2021/03/13 01:05:19;;;;;;;21.77;11.30;;;;;;;2.36;65.10;99135.08;147709;1144;104458;-73
2021/03/13 01:08:23;;;;;;;21.05;10.75;;;;;;;2.33;66.24;99130.08;147750;1144;104486;-73
2021/03/13 01:11:32;;;;;;;23.67;11.80;;;;;;;2.33;64.85;99119.55;147725;1144;104508;-67
2021/03/13 01:14:37;;;;;;;24.95;11.63;;;;;;;2.31;65.13;99121.48;147710;1143;104470;-72
2021/03/13 01:17:41;;;;;;;21.82;11.20;;;;;;;2.30;65.26;99125.06;147729;1144;104921;-71
2021/03/13 01:20:45;;;;;;;21.70;10.13;;;;;;;2.27;65.20;99113.95;147745;1144;104654;-71
2021/03/13 01:23:48;;;;;;;24.27;10.93;;;;;;;2.25;66.12;99113.25;147740;1144;104482;-71
2021/03/13 01:26:53;;;;;;;28.57;12.90;;;;;;;2.31;66.47;99117.99;147757;1144;104543;-73
2021/03/13 01:29:57;;;;;;;27.05;10.88;;;;;;;2.35;64.82;99117.63;147752;1144;104466;-72
2021/03/13 01:33:00;;;;;;;23.87;11.03;;;;;;;2.37;65.60;99109.61;147755;1144;104540;-70
2021/03/13 01:36:05;;;;;;;25.10;12.07;;;;;;;2.38;65.56;99106.00;147833;1144;104556;-72
2021/03/13 01:39:09;;;;;;;24.12;11.88;;;;;;;2.34;65.59;99105.41;147781;1145;104485;-72
2021/03/13 01:42:14;;;;;;;23.12;9.90;;;;;;;2.31;66.11;99095.16;147776;1144;104449;-72
2021/03/13 01:45:20;;;;;;;23.12;11.22;;;;;;;2.27;65.18;99109.55;147845;1143;104436;-71
2021/03/13 01:48:31;;;;;;;20.23;10.63;;;;;;;2.25;65.34;99100.95;147758;1142;104556;-73
2021/03/13 01:51:35;;;;;;;24.72;11.83;;;;;;;2.23;65.37;99094.95;147743;1144;104447;-73
2021/03/13 01:54:42;;;;;;;27.75;12.03;;;;;;;2.21;65.72;99098.68;147726;1144;104547;-73
2021/03/13 01:57:46;;;;;;;25.55;11.97;;;;;;;2.20;66.12;99089.13;147816;1144;104535;-72
2021/03/13 02:00:50;;;;;;;24.70;11.70;;;;;;;2.20;66.06;99092.59;147724;1143;104544;-71
2021/03/13 02:03:54;;;;;;;24.85;11.95;;;;;;;2.17;65.11;99087.57;147776;1144;104629;-74
2021/03/13 02:07:03;;;;;;;25.85;11.88;;;;;;;2.17;65.95;99077.05;147717;1144;104479;-74
2021/03/13 02:10:13;;;;;;;33.30;14.35;;;;;;;2.16;65.38;99075.39;147764;1143;104486;-73
2021/03/13 02:13:26;;;;;;;27.90;12.67;;;;;;;2.15;65.50;99071.91;147681;1145;104556;-71
2021/03/13 02:16:39;;;;;;;30.25;13.45;;;;;;;2.17;65.28;99084.94;147818;1144;104532;-76
2021/03/13 02:20:13;;;;;;;28.40;13.10;;;;;;;2.18;65.91;99072.64;147836;1143;104590;-72
2021/03/13 02:23:20;;;;;;;35.45;15.65;;;;;;;2.14;65.62;99057.09;147910;1143;104478;-69
2021/03/13 02:27:13;;;;;;;29.42;12.80;;;;;;;2.20;65.18;99057.55;147758;1143;104544;-73
2021/03/13 02:30:26;;;;;;;27.17;11.68;;;;;;;2.27;65.95;99054.27;147543;1143;104485;-70
2021/03/13 02:33:39;;;;;;;23.60;11.93;;;;;;;2.34;66.04;99065.93;147694;1144;104492;-72
2021/03/13 02:37:13;;;;;;;62.45;26.82;;;;;;;2.39;66.11;99060.30;147766;1142;104601;-74
2021/03/13 02:40:24;;;;;;;28.05;13.28;;;;;;;2.39;64.86;99048.91;147810;1143;104553;-69
2021/03/13 02:43:28;;;;;;;28.12;13.43;;;;;;;2.38;65.69;99044.62;147690;1143;104471;-69
2021/03/13 02:46:36;;;;;;;27.17;11.90;;;;;;;2.33;66.27;99031.86;147713;1144;104658;-71
2021/03/13 02:49:43;;;;;;;29.37;12.30;;;;;;;2.31;65.91;99034.63;147744;1143;104838;-70
2021/03/13 02:52:54;;;;;;;24.35;12.00;;;;;;;2.31;64.91;99039.89;147765;1144;104591;-71
2021/03/13 02:55:59;;;;;;;22.50;12.23;;;;;;;2.31;65.82;99037.25;147725;1143;104544;-74
2021/03/13 02:59:05;;;;;;;24.18;11.80;;;;;;;2.33;66.01;99030.05;147824;1143;104534;-72
2021/03/13 03:02:13;;;;;;;22.22;10.70;;;;;;;2.31;65.81;99026.72;147685;1143;104551;-70
2021/03/13 03:05:19;;;;;;;24.67;11.73;;;;;;;2.35;65.54;99022.03;147705;1143;104540;-70
2021/03/13 03:08:24;;;;;;;19.92;10.25;;;;;;;2.34;65.18;99026.44;147777;1144;104564;-72
2021/03/13 03:11:28;;;;;;;25.55;11.53;;;;;;;2.39;66.24;99015.54;147739;1143;104601;-71
2021/03/13 03:14:35;;;;;;;22.35;9.38;;;;;;;2.43;66.35;99013.48;147682;1144;104563;-72
2021/03/13 03:17:40;;;;;;;24.73;11.10;;;;;;;2.48;66.37;99009.48;147731;1144;104879;-71
2021/03/13 03:20:46;;;;;;;19.32;9.45;;;;;;;2.52;65.52;99023.20;147792;1144;104863;-74
2021/03/13 03:23:50;;;;;;;21.57;10.80;;;;;;;2.56;65.53;99016.73;147744;1144;104577;-71
2021/03/13 03:26:54;;;;;;;19.15;9.40;;;;;;;2.59;65.51;99008.55;147829;1143;104562;-74
2021/03/13 03:29:58;;;;;;;20.05;10.18;;;;;;;2.62;64.67;99003.02;147836;1144;104540;-72
2021/03/13 03:33:03;;;;;;;19.52;9.58;;;;;;;2.63;65.01;99004.67;147900;1144;104522;-71
2021/03/13 03:36:08;;;;;;;19.30;9.93;;;;;;;2.68;65.51;99001.66;147657;1144;104448;-75
2021/03/13 03:39:12;;;;;;;18.57;9.55;;;;;;;2.69;64.71;98993.59;147857;1144;104636;-70
2021/03/13 03:42:18;;;;;;;20.32;10.25;;;;;;;2.73;65.48;99002.07;147789;1144;104444;-69
2021/03/13 03:45:24;;;;;;;18.40;9.53;;;;;;;2.75;65.21;98993.09;147713;1144;104533;-69
2021/03/13 03:48:30;;;;;;;21.35;9.48;;;;;;;2.78;65.23;98991.97;147781;1143;104457;-68
2021/03/13 03:51:42;;;;;;;19.87;9.93;;;;;;;2.82;65.14;98984.64;147717;1144;104522;-73
2021/03/13 03:54:50;;;;;;;19.48;9.68;;;;;;;2.85;65.23;98973.81;147882;1144;104531;-73
2021/03/13 03:57:55;;;;;;;19.40;9.38;;;;;;;2.83;65.31;98979.24;147826;1144;104479;-70
2021/03/13 04:00:59;;;;;;;25.43;10.18;;;;;;;2.84;65.25;98982.70;147741;1143;104534;-69
2021/03/13 04:04:06;;;;;;;21.23;11.45;;;;;;;2.84;66.02;98969.53;147699;1143;104540;-69
2021/03/13 04:07:10;;;;;;;23.00;11.68;;;;;;;2.79;65.22;98958.55;147746;1143;104449;-72
2021/03/13 04:10:16;;;;;;;22.53;10.47;;;;;;;2.80;64.94;98952.34;147722;1143;104534;-70
2021/03/13 04:13:22;;;;;;;18.60;8.50;;;;;;;2.77;66.08;98956.05;147682;1144;104471;-67
2021/03/13 04:16:26;;;;;;;25.20;11.87;;;;;;;2.80;65.61;98942.63;147674;1144;104556;-72
2021/03/13 04:19:29;;;;;;;22.37;10.20;;;;;;;2.90;64.50;98937.37;147831;1144;104513;-76
2021/03/13 04:22:33;;;;;;;28.15;13.50;;;;;;;2.98;65.18;98945.41;147815;1144;104534;-71
2021/03/13 04:25:37;;;;;;;23.67;11.12;;;;;;;3.06;64.68;98948.22;147824;1144;104953;-71
2021/03/13 04:28:41;;;;;;;46.00;19.73;;;;;;;3.12;64.87;98946.84;147844;1144;104479;-71
2021/03/13 04:31:45;;;;;;;31.05;14.13;;;;;;;3.13;65.29;98938.77;147710;1144;104452;-70
2021/03/13 04:34:50;;;;;;;21.20;11.20;;;;;;;3.10;64.11;98931.16;147738;1144;104543;-75
2021/03/13 04:37:56;;;;;;;21.77;10.78;;;;;;;3.09;64.52;98926.84;147773;1144;104471;-72
2021/03/13 04:41:00;;;;;;;21.87;10.25;;;;;;;3.08;64.03;98922.56;147838;1144;104690;-71
2021/03/13 04:44:05;;;;;;;22.07;11.03;;;;;;;3.12;64.57;98920.48;147881;1143;104539;-72
2021/03/13 04:47:10;;;;;;;31.17;16.07;;;;;;;3.13;64.52;98930.86;147797;1144;104467;-73
2021/03/13 04:50:15;;;;;;;23.55;11.73;;;;;;;3.13;64.53;98912.41;147845;1143;104556;-71
2021/03/13 04:53:18;;;;;;;25.55;12.82;;;;;;;3.15;64.02;98910.47;147639;1144;104496;-73
2021/03/13 04:56:22;;;;;;;25.57;11.73;;;;;;;3.19;64.43;98912.84;147803;1144;104574;-75
2021/03/13 04:59:25;;;;;;;24.20;11.63;;;;;;;3.18;64.46;98919.09;147851;1143;104543;-77
2021/03/13 05:02:28;;;;;;;29.67;13.98;;;;;;;3.19;64.92;98912.84;147847;1144;104469;-74
2021/03/13 05:05:33;;;;;;;25.32;11.55;;;;;;;3.19;65.11;98899.66;147823;1143;104854;-72
2021/03/13 05:08:37;;;;;;;22.90;12.15;;;;;;;3.22;65.52;98909.94;147845;1144;104494;-76
2021/03/13 05:11:40;;;;;;;29.97;14.00;;;;;;;3.23;64.99;98917.68;147863;1143;104543;-73
2021/03/13 05:14:45;;;;;;;26.90;13.75;;;;;;;3.24;65.19;98913.27;147876;1144;104541;-74
2021/03/13 05:17:49;;;;;;;28.00;12.03;;;;;;;3.26;65.20;98922.69;147829;1144;104575;-74
2021/03/13 05:20:52;;;;;;;23.12;11.10;;;;;;;3.29;64.03;98926.84;147825;1143;104547;-73
2021/03/13 05:23:55;;;;;;;22.75;10.75;;;;;;;3.31;64.57;98931.02;147815;1143;104546;-71
2021/03/13 05:26:58;;;;;;;21.07;10.58;;;;;;;3.34;63.94;98924.63;147827;1143;104560;-74
2021/03/13 05:30:02;;;;;;;32.00;18.52;;;;;;;3.36;64.51;98943.77;147851;1143;104454;-75
2021/03/13 05:33:05;;;;;;;24.23;11.65;;;;;;;3.40;64.51;98931.97;147634;1144;104441;-68
2021/03/13 05:36:11;;;;;;;23.83;12.10;;;;;;;3.42;64.27;98952.94;147773;1144;104892;-72
2021/03/13 05:39:14;;;;;;;29.33;16.00;;;;;;;3.47;65.10;98964.73;147724;1143;105116;-72
2021/03/13 05:42:18;;;;;;;25.62;14.63;;;;;;;3.51;64.90;98963.47;147837;1144;104591;-75
2021/03/13 05:45:21;;;;;;;23.85;12.30;;;;;;;3.51;63.93;98968.75;147908;1144;104510;-71
2021/03/13 05:48:26;;;;;;;22.37;10.98;;;;;;;3.56;64.96;98985.95;147821;1144;104556;-72
2021/03/13 05:51:34;;;;;;;20.10;11.03;;;;;;;3.58;65.10;98984.01;147828;1144;104542;-73
2021/03/13 05:54:38;;;;;;;21.37;10.80;;;;;;;3.61;65.12;98991.66;147856;1143;104473;-75
2021/03/13 05:57:43;;;;;;;17.87;8.43;;;;;;;3.60;65.05;98990.83;147842;1144;104546;-72
2021/03/13 06:00:46;;;;;;;21.60;10.15;;;;;;;3.61;65.68;98996.93;147830;1143;104634;-72
2021/03/13 06:03:50;;;;;;;19.52;9.13;;;;;;;3.66;65.84;98992.08;147862;1143;104882;-74
2021/03/13 06:06:54;;;;;;;18.05;8.53;;;;;;;3.75;66.44;99004.41;147745;1144;104450;-71
2021/03/13 06:09:58;;;;;;;15.93;7.97;;;;;;;3.84;67.09;99000.93;147798;1145;104471;-71
2021/03/13 06:13:01;;;;;;;15.58;8.10;;;;;;;3.88;66.82;99010.23;147673;1144;104556;-74
2021/03/13 06:16:05;;;;;;;177.68;61.77;;;;;;;3.89;65.98;99006.62;147830;1144;104462;-75
2021/03/13 06:19:09;;;;;;;36.83;16.43;;;;;;;3.92;66.90;99008.97;147932;1144;104471;-73
2021/03/13 06:22:37;;;;;;;30.25;15.25;;;;;;;3.90;66.76;99008.28;147796;1144;104584;-73
2021/03/13 06:25:41;;;;;;;75.00;35.20;;;;;;;3.90;66.71;99010.91;147871;1144;104519;-69
2021/03/13 06:28:44;;;;;;;106.03;46.20;;;;;;;3.86;67.62;99009.53;147628;1144;104529;-73
2021/03/13 06:32:04;;;;;;;55.85;20.48;;;;;;;3.85;68.32;99022.86;147944;1143;104543;-73
2021/03/13 06:35:21;;;;;;;31.65;12.45;;;;;;;3.83;66.85;99027.45;147828;1143;104397;-74
2021/03/13 06:38:26;;;;;;;24.30;9.03;;;;;;;3.80;67.47;99020.66;147820;1143;104546;-71
2021/03/13 06:41:29;;;;;;;184.37;57.48;;;;;;;3.86;67.11;99012.17;147684;1142;104463;-71
2021/03/13 06:44:32;;;;;;;39.78;13.93;;;;;;;3.94;66.99;99006.19;147689;1144;104574;-72
2021/03/13 06:47:38;;;;;;;72.32;25.45;;;;;;;4.03;67.77;99009.80;147861;1142;104557;-71
2021/03/13 06:50:41;;;;;;;27.60;10.75;;;;;;;4.06;68.08;99009.50;147659;1144;104541;-69
2021/03/13 06:53:46;;;;;;;13.60;6.62;;;;;;;4.06;68.21;99014.78;147651;1144;104458;-72
2021/03/13 06:56:59;;;;;;;10.33;5.43;;;;;;;4.01;67.19;99017.86;147867;1144;104486;-76
2021/03/13 07:00:05;;;;;;;12.55;7.35;;;;;;;3.98;67.42;99012.02;147828;1143;104630;-72
2021/03/13 07:03:09;;;;;;;11.10;6.07;;;;;;;3.97;67.76;99005.09;147865;1144;104650;-70
2021/03/13 07:06:18;;;;;;;10.35;5.90;;;;;;;4.01;67.82;99017.03;147760;1144;104464;-72
2021/03/13 07:09:51;;;;;;;10.65;5.42;;;;;;;4.10;68.60;99006.45;147832;1144;104457;-77
2021/03/13 07:12:55;;;;;;;13.98;6.10;;;;;;;4.21;68.68;99009.89;147906;1144;104453;-75
2021/03/13 07:16:29;;;;;;;17.27;8.75;;;;;;;4.30;68.17;99009.86;147824;1144;104543;-74
2021/03/13 07:19:32;;;;;;;13.27;7.20;;;;;;;4.31;67.59;99027.39;147868;1143;104538;-77
2021/03/13 07:22:37;;;;;;;11.55;7.08;;;;;;;4.38;68.05;99016.24;147876;1144;104526;-72
2021/03/13 07:25:41;;;;;;;13.18;7.92;;;;;;;4.40;68.54;99023.03;147893;1144;104489;-74
2021/03/13 07:28:45;;;;;;;11.15;6.67;;;;;;;4.45;68.44;99018.16;147960;1143;104550;-73
2021/03/13 07:31:56;;;;;;;10.32;6.08;;;;;;;4.61;68.47;99014.07;148879;1142;104544;-74
2021/03/13 07:35:08;;;;;;;13.32;7.12;;;;;;;4.76;69.10;99011.79;148703;1142;104516;-75
2021/03/13 07:38:14;;;;;;;8.88;5.75;;;;;;;4.90;68.30;99013.93;147973;1142;104460;-73
2021/03/13 07:41:18;;;;;;;10.70;6.28;;;;;;;4.97;68.74;99009.73;148051;1144;104538;-75
2021/03/13 07:44:22;;;;;;;10.43;6.30;;;;;;;4.99;68.84;99007.77;148795;1142;104444;-74
2021/03/13 07:47:27;;;;;;;31.20;15.05;;;;;;;5.00;68.37;99025.27;148201;1143;104486;-74
2021/03/13 07:50:31;;;;;;;36.45;19.23;;;;;;;5.14;68.22;99015.18;148112;1144;104455;-77
2021/03/13 07:53:39;;;;;;;16.40;7.47;;;;;;;5.11;68.50;99006.56;147764;1144;104886;-75
2021/03/13 07:56:43;;;;;;;158.57;52.35;;;;;;;5.09;68.29;99016.45;147840;1144;104544;-71
2021/03/13 07:59:47;;;;;;;143.95;54.55;;;;;;;5.21;68.53;99011.79;147726;1144;104470;-73
2021/03/13 08:02:52;;;;;;;34.53;16.27;;;;;;;5.23;68.40;99020.41;147824;1143;104604;-72
2021/03/13 08:06:00;;;;;;;32.33;13.27;;;;;;;5.24;68.97;99006.22;147777;1144;104459;-74
2021/03/13 08:09:24;;;;;;;75.80;35.92;;;;;;;5.27;68.64;99015.66;147793;1144;104448;-71
2021/03/13 08:12:40;;;;;;;46.90;36.63;;;;;;;5.30;68.59;99021.48;148025;1144;104499;-79
2021/03/13 08:15:47;;;;;;;151.32;58.68;;;;;;;5.31;68.65;99009.08;147870;1143;104540;-83
2021/03/13 08:18:52;;;;;;;45.07;26.20;;;;;;;5.34;68.85;99005.32;147841;1143;104460;-83
2021/03/13 08:22:15;;;;;;;15.18;8.60;;;;;;;5.34;68.89;98997.38;147927;1145;104447;-73
2021/03/13 08:25:27;;;;;;;26.35;15.75;;;;;;;5.40;69.22;98994.95;147862;1144;104532;-82
2021/03/13 08:28:57;;;;;;;34.00;20.20;;;;;;;5.46;69.02;98994.34;147937;1144;104460;-77
2021/03/13 08:32:00;;;;;;;22.63;12.83;;;;;;;5.60;69.20;98992.15;147709;1144;104665;-80
2021/03/13 08:35:08;;;;;;;40.30;27.80;;;;;;;5.71;69.37;98995.38;147870;1144;104627;-76
2021/03/13 08:38:13;;;;;;;19.73;12.60;;;;;;;5.78;69.48;98979.74;147921;1144;104541;-75
2021/03/13 08:41:49;;;;;;;19.77;12.13;;;;;;;5.83;69.41;98985.41;147957;1143;104474;-72
2021/03/13 08:45:12;;;;;;;16.02;8.78;;;;;;;5.90;69.84;98991.73;147712;1143;104451;-71
2021/03/13 08:48:15;;;;;;;13.50;7.85;;;;;;;6.02;69.22;98994.98;147951;1144;104537;-73
2021/03/13 08:51:18;;;;;;;16.23;10.20;;;;;;;6.18;69.56;98994.29;147847;1144;104628;-70
2021/03/13 08:54:47;;;;;;;13.62;7.92;;;;;;;6.39;69.43;98993.06;147706;1144;104458;-73
2021/03/13 08:57:50;;;;;;;14.15;9.90;;;;;;;6.75;69.45;98995.56;147602;1144;105055;-71
2021/03/13 09:00:53;;;;;;;17.75;12.05;;;;;;;7.08;69.16;98994.70;147743;1143;104653;-72
2021/03/13 09:03:57;;;;;;;23.15;14.95;;;;;;;7.33;69.01;98977.98;147708;1145;104617;-73
2021/03/13 09:07:02;;;;;;;17.75;10.23;;;;;;;7.45;68.20;98982.00;147659;1144;104566;-70
2021/03/13 09:10:07;;;;;;;547.95;275.43;;;;;;;7.56;67.85;98988.80;147775;1144;104450;-71
2021/03/13 09:13:20;;;;;;;1071.25;488.77;;;;;;;7.60;68.38;98979.50;147576;1143;104543;-72
2021/03/13 09:16:23;;;;;;;349.37;108.17;;;;;;;7.56;68.65;98988.80;147891;1144;104466;-72
2021/03/13 09:19:26;;;;;;;417.98;166.65;;;;;;;7.61;67.41;98984.66;147767;1143;104451;-73
2021/03/13 09:22:29;;;;;;;713.47;383.20;;;;;;;7.79;68.21;98979.16;147804;1144;104842;-75
2021/03/13 09:25:35;;;;;;;211.10;96.53;;;;;;;7.89;66.12;98979.02;147814;1142;104566;-72
2021/03/13 09:28:39;;;;;;;93.42;46.15;;;;;;;7.99;67.43;98973.53;147841;1143;104533;-73
2021/03/13 09:31:43;;;;;;;48.58;23.42;;;;;;;8.12;67.09;98968.54;147543;1143;104578;-75
2021/03/13 09:34:47;;;;;;;89.43;51.40;;;;;;;8.22;66.58;98963.86;147782;1144;104441;-75
2021/03/13 09:37:51;;;;;;;41.20;26.50;;;;;;;8.33;65.26;98967.14;147919;1144;104534;-71
2021/03/13 09:40:54;;;;;;;75.35;51.00;;;;;;;8.36;66.53;98958.84;147703;1144;104627;-74
2021/03/13 09:43:57;;;;;;;34.98;23.18;;;;;;;8.28;66.32;98959.69;147779;1144;104541;-74
2021/03/13 09:47:00;;;;;;;117.95;85.70;;;;;;;8.25;66.00;98958.18;147589;1143;104483;-75
2021/03/13 09:50:07;;;;;;;22.13;13.10;;;;;;;8.33;64.86;98945.88;147791;1144;104700;-72
2021/03/13 09:53:11;;;;;;;14.30;9.93;;;;;;;8.52;66.32;98948.17;147811;1144;104726;-72
2021/03/13 09:56:15;;;;;;;49.47;30.63;;;;;;;8.76;65.72;98949.09;147928;1144;104560;-76
2021/03/13 09:59:19;;;;;;;42.90;30.70;;;;;;;8.99;65.74;98939.31;147711;1143;104492;-76
2021/03/13 10:02:22;;;;;;;58.20;30.60;;;;;;;9.16;64.05;98948.03;147866;1144;104459;-77
2021/03/13 10:05:28;;;;;;;42.25;22.32;;;;;;;9.22;63.62;98938.52;147941;1144;104519;-78
2021/03/13 10:08:35;;;;;;;68.07;33.77;;;;;;;9.25;64.39;98940.80;147864;1143;104595;-78
2021/03/13 10:11:43;;;;;;;362.30;180.48;;;;;;;9.18;63.24;98939.84;147940;1144;104905;-74
2021/03/13 10:14:46;;;;;;;103.62;53.50;;;;;;;9.12;63.66;98943.22;147813;1143;104579;-71
2021/03/13 10:17:59;;;;;;;89.32;47.43;;;;;;;9.15;63.28;98933.05;147836;1143;104473;-72
2021/03/13 10:21:02;;;;;;;111.80;57.73;;;;;;;9.27;63.71;98945.95;147870;1144;104538;-74
2021/03/13 10:24:09;;;;;;;34.30;19.02;;;;;;;9.33;64.39;98935.41;147606;1144;104623;-72
2021/03/13 10:27:18;;;;;;;30.13;17.57;;;;;;;9.41;63.43;98937.19;147645;1145;104542;-73
2021/03/13 10:30:27;;;;;;;29.90;17.60;;;;;;;9.40;62.69;98936.38;147803;1143;104562;-73
2021/03/13 10:33:32;;;;;;;54.03;27.82;;;;;;;9.36;62.80;98929.75;147699;1144;104480;-80
2021/03/13 10:36:46;;;;;;;255.70;115.45;;;;;;;9.29;62.23;98928.80;147946;1143;104486;-70
2021/03/13 10:39:49;;;;;;;53.23;25.70;;;;;;;9.32;61.66;98923.12;147913;1144;104548;-72
2021/03/13 10:42:52;;;;;;;38.63;20.08;;;;;;;9.37;63.03;98926.09;147982;1143;104562;-76
2021/03/13 10:46:11;;;;;;;92.02;39.38;;;;;;;9.38;61.71;98935.72;147788;1144;104413;-72
2021/03/13 10:49:14;;;;;;;86.37;35.75;;;;;;;9.47;60.93;98930.33;147914;1143;104555;-73
2021/03/13 10:52:29;;;;;;;47.48;22.40;;;;;;;9.47;61.80;98925.85;147622;1144;104815;-73
2021/03/13 10:55:41;;;;;;;27.90;13.70;;;;;;;9.48;60.82;98916.02;147821;1144;104605;-73
2021/03/13 10:58:49;;;;;;;51.60;24.02;;;;;;;9.48;61.13;98926.67;147970;1145;104542;-75
2021/03/13 11:01:52;;;;;;;21.57;10.72;;;;;;;9.49;61.31;98913.19;147895;1144;104857;-72
2021/03/13 11:04:55;;;;;;;26.23;14.33;;;;;;;9.61;60.68;98910.92;147867;1144;104463;-72
2021/03/13 11:07:58;;;;;;;336.30;126.02;;;;;;;9.76;58.74;98909.12;147951;1143;104443;-72
2021/03/13 11:11:01;;;;;;;213.23;74.67;;;;;;;9.86;60.40;98913.37;147804;1144;104660;-71
2021/03/13 11:14:07;;;;;;;80.70;31.00;;;;;;;9.93;59.61;98908.94;147664;1143;104529;-70
2021/03/13 11:17:10;;;;;;;18.82;8.10;;;;;;;10.04;58.82;98903.17;147726;1144;104549;-74
2021/03/13 11:20:14;;;;;;;18.77;7.83;;;;;;;10.11;59.55;98901.44;147685;1144;104548;-74
2021/03/13 11:23:19;;;;;;;44.48;19.57;;;;;;;10.19;59.89;98893.34;147902;1144;104550;-75
2021/03/13 11:26:24;;;;;;;90.93;37.70;;;;;;;10.33;60.14;98891.70;147869;1144;104604;-82
2021/03/13 11:29:31;;;;;;;376.58;158.25;;;;;;;10.51;58.32;98879.85;147835;1143;104487;-71
2021/03/13 11:32:37;;;;;;;88.80;37.10;;;;;;;10.62;58.56;98879.34;147733;1143;104543;-74
2021/03/13 11:35:40;;;;;;;37.27;17.00;;;;;;;10.70;57.27;98867.73;147781;1145;104516;-78
2021/03/13 11:38:43;;;;;;;18.20;8.40;;;;;;;10.77;58.70;98868.64;147864;1143;104879;-73
2021/03/13 11:41:46;;;;;;;43.40;17.87;;;;;;;10.87;58.84;98857.66;147892;1144;104427;-73
2021/03/13 11:44:50;;;;;;;99.77;41.13;;;;;;;10.82;58.51;98852.91;147859;1143;104591;-73
2021/03/13 11:47:55;;;;;;;138.60;51.00;;;;;;;10.77;57.12;98855.30;147738;1144;104460;-72
2021/03/13 11:50:58;;;;;;;31.37;13.20;;;;;;;10.76;57.15;98841.14;147722;1144;104539;-74
2021/03/13 11:54:01;;;;;;;60.00;23.87;;;;;;;10.80;56.62;98849.60;147840;1143;104452;-73
2021/03/13 11:57:06;;;;;;;78.33;27.07;;;;;;;10.81;57.77;98829.89;147750;1143;104652;-77
2021/03/13 12:00:11;;;;;;;19.23;7.95;;;;;;;10.76;56.82;98829.66;147845;1143;104580;-76
2021/03/13 12:03:14;;;;;;;60.50;25.43;;;;;;;10.66;57.32;98819.27;147856;1143;104540;-79
2021/03/13 12:06:17;;;;;;;35.33;13.70;;;;;;;10.65;56.68;98814.95;147838;1144;104462;-78
2021/03/13 12:09:20;;;;;;;65.90;25.95;;;;;;;10.68;57.47;98805.74;148194;1144;104462;-77
2021/03/13 12:12:24;;;;;;;18.30;8.90;;;;;;;10.67;56.50;98809.45;147712;1144;104599;-81
2021/03/13 12:15:27;;;;;;;21.87;11.10;;;;;;;10.70;55.28;98795.70;147849;1144;104463;-77
2021/03/13 12:18:32;;;;;;;23.83;12.33;;;;;;;10.81;55.75;98788.02;147950;1144;105237;-81
2021/03/13 12:21:36;;;;;;;25.65;15.88;;;;;;;10.89;55.52;98792.41;148166;1144;104532;-79
2021/03/13 12:24:39;;;;;;;24.57;15.55;;;;;;;10.90;56.21;98777.23;148487;1142;104545;-79
2021/03/13 12:27:43;;;;;;;16.80;10.53;;;;;;;10.90;54.07;98780.73;148072;1144;104604;-78
2021/03/13 12:30:46;;;;;;;22.20;16.00;;;;;;;11.04;55.95;98775.50;147844;1143;104535;-76
2021/03/13 12:33:49;;;;;;;42.70;28.27;;;;;;;11.17;55.51;98767.61;147825;1144;104540;-80
2021/03/13 12:36:52;;;;;;;277.20;144.57;;;;;;;11.22;55.24;98770.53;147867;1144;104570;-78
2021/03/13 12:39:56;;;;;;;56.33;32.10;;;;;;;11.21;55.54;98760.86;147930;1143;104455;-78
2021/03/13 12:42:59;;;;;;;214.72;119.53;;;;;;;11.28;55.85;98752.88;147732;1142;104540;-81
2021/03/13 12:46:03;;;;;;;69.50;37.60;;;;;;;11.28;54.02;98744.88;148545;1143;104494;-75
2021/03/13 12:49:06;;;;;;;219.85;114.52;;;;;;;11.15;55.70;98753.63;148127;1142;104528;-72
2021/03/13 12:52:09;;;;;;;161.73;79.87;;;;;;;11.12;55.27;98754.00;148226;1142;104534;-73
2021/03/13 12:55:15;;;;;;;100.15;48.95;;;;;;;11.04;54.34;98746.15;148164;1144;104537;-73
2021/03/13 12:58:18;;;;;;;78.27;41.63;;;;;;;10.99;54.66;98742.22;147922;1144;104629;-72
2021/03/13 13:01:22;;;;;;;90.53;48.70;;;;;;;11.00;55.54;98735.84;147988;1144;104512;-73
2021/03/13 13:04:25;;;;;;;53.55;28.85;;;;;;;11.06;55.49;98731.58;147820;1143;104480;-73
2021/03/13 13:07:28;;;;;;;604.57;409.20;;;;;;;11.09;54.78;98738.39;147863;1143;104448;-72
2021/03/13 13:10:31;;;;;;;466.57;271.48;;;;;;;11.16;55.03;98729.42;147577;1144;104452;-72
2021/03/13 13:13:34;;;;;;;165.90;85.12;;;;;;;11.19;54.00;98722.85;147649;1143;104553;-70
2021/03/13 13:16:37;;;;;;;81.22;39.38;;;;;;;11.18;54.96;98726.53;147599;1143;104522;-72
2021/03/13 13:19:41;;;;;;;139.90;61.58;;;;;;;11.14;54.52;98720.78;147868;1142;104438;-73
2021/03/13 13:22:44;;;;;;;49.95;23.73;;;;;;;11.11;53.26;98710.48;147577;1144;104464;-73
2021/03/13 13:25:47;;;;;;;77.00;35.43;;;;;;;11.13;53.56;98707.63;147961;1143;104499;-76
2021/03/13 13:28:51;;;;;;;183.87;81.60;;;;;;;11.16;53.56;98707.21;148068;1144;104579;-74
2021/03/13 13:31:54;;;;;;;148.40;65.78;;;;;;;11.15;53.99;98706.39;148021;1144;104481;-74
2021/03/13 13:34:57;;;;;;;113.60;51.37;;;;;;;11.17;54.35;98703.54;147945;1144;104444;-72
2021/03/13 13:38:00;;;;;;;488.90;254.60;;;;;;;11.19;51.47;98704.98;148417;1143;104553;-74
2021/03/13 13:41:04;;;;;;;49.80;24.37;;;;;;;11.16;53.10;98704.55;147976;1144;104469;-73
2021/03/13 13:44:08;;;;;;;133.72;62.88;;;;;;;11.11;54.25;98704.33;147935;1144;104607;-74
2021/03/13 13:47:11;;;;;;;251.07;118.50;;;;;;;11.03;54.66;98701.78;147787;1142;104505;-73
2021/03/13 13:50:17;;;;;;;34.58;17.20;;;;;;;10.96;53.38;98701.73;147885;1143;104511;-75
2021/03/13 13:53:20;;;;;;;93.12;44.23;;;;;;;10.93;54.54;98705.63;147785;1144;104469;-73
2021/03/13 13:56:24;;;;;;;58.87;30.30;;;;;;;10.89;53.63;98699.01;147765;1143;104499;-74
2021/03/13 13:59:27;;;;;;;20.17;10.55;;;;;;;10.84;53.95;98690.77;147824;1144;104604;-75
2021/03/13 14:02:30;;;;;;;31.40;17.00;;;;;;;10.79;54.21;98693.19;147789;1143;104515;-75